Anzoras — EAZC — position and weather

sailwx.info

Track history (hours):
 
Tides and Currents Weather Stations Pressure Air Temp Water Temp Dewpoint Dewpoint Depression Visibility Wind Speed Wind Dir Waves Ship Positions

Anzoras

Last reported at 2014-Sep-19 09:20 UTC. Time now 2014-Sep-19 09:52 UTC.
Position N 50°44' W 000°07'.

Length 100 m; draft 4.3 m.

Type: Cargo ship. MMSI: 224376000.

Date/timePositionNaut miles runAvg speedWind from/ knotsBaromVisibWave heightAir tempDewpointWater temp
2014-Sep-19 09:20N 50°44' W 000°07'22 8.0
2014-Sep-19 06:33N 50°37' E 000°27'5312.8
2014-Sep-19 02:24N 51°09' E 001°35'1113.2
2014-Sep-19 01:33N 51°20' E 001°36'1111.4
2014-Sep-19 00:33N 51°28' E 001°23'2713.4
2014-Sep-18 22:33N 51°30' E 000°40'1212.0
2014-Sep-18 21:34N 51°27' E 000°22'1 0.8
2014-Sep-18 20:34N 51°28' E 000°21'0 0.0
2014-Sep-18 19:33N 51°28' E 000°21'0 0.0
2014-Sep-18 18:34N 51°28' E 000°21'0 0.0
2014-Sep-18 17:33N 51°28' E 000°21'0 0.0
2014-Sep-18 16:33N 51°28' E 000°21'0 0.0
2014-Sep-18 15:33N 51°28' E 000°21'0 0.0
2014-Sep-18 14:33N 51°28' E 000°21'0 0.0
2014-Sep-18 13:34N 51°28' E 000°21'0 0.0
2014-Sep-18 12:34N 51°28' E 000°21'0 0.0
2014-Sep-18 11:34N 51°28' E 000°21'0 0.0
2014-Sep-18 10:34N 51°28' E 000°21'0 0.0
2014-Sep-18 09:34N 51°28' E 000°21'0 0.0
2014-Sep-18 08:34N 51°28' E 000°21'0 0.0
2014-Sep-18 07:33N 51°28' E 000°21'0 0.0
2014-Sep-18 06:33N 51°28' E 000°21'0 0.0
2014-Sep-18 05:34N 51°28' E 000°21'0 0.0
2014-Sep-18 04:33N 51°28' E 000°21'0 0.0
2014-Sep-18 03:33N 51°28' E 000°21'0 0.0
2014-Sep-18 02:33N 51°28' E 000°21'0 0.0
2014-Sep-18 01:34N 51°28' E 000°21'0 0.0
2014-Sep-18 00:34N 51°28' E 000°21'0 0.2
2014-Sep-17 23:34N 51°27' E 000°21'0 0.5
2014-Sep-17 22:33N 51°27' E 000°21'7 6.6
2014-Sep-17 21:33N 51°30' E 000°30'11 8.3
2014-Sep-17 20:12N 51°30' E 000°48'6 8.9
2014-Sep-17 19:33N 51°29' E 000°57'1110.3
2014-Sep-17 18:32N 51°29' E 001°14'1010.6
2014-Sep-17 17:33N 51°26' E 001°30'7 7.0
2014-Sep-17 16:33N 51°21' E 001°38'3 2.9
2014-Sep-17 15:33N 51°18' E 001°36'4 4.4
2014-Sep-17 14:33N 51°14' E 001°37'6 5.6
2014-Sep-17 13:33N 51°10' E 001°42'8 7.3
2014-Sep-17 12:29N 51°03' E 001°35'9 8.6
2014-Sep-17 11:30N 50°57' E 001°26'  
2014-Sep-12 20:33N 35°54' W 005°19'0 0.2
2014-Sep-12 19:32N 35°54' W 005°19'0 0.0
2014-Sep-12 18:32N 35°54' W 005°19'0 0.0
2014-Sep-12 17:32N 35°54' W 005°19'1 1.4
2014-Sep-12 16:33N 35°55' W 005°18'368 9.7
2014-Sep-11 02:32N 40°00' E 000°31'92 6.8
2014-Sep-10 13:08N 41°13' E 001°44'  
Track history (hours):
 
Tides and Currents Weather Stations Pressure Air Temp Water Temp Dewpoint Dewpoint Depression Visibility Wind Speed Wind Dir Waves Ship Positions

Anzoras

Last reported at 2014-Sep-19 09:20 UTC. Time now 2014-Sep-19 09:52 UTC.
Position N 50°44' W 000°07'.

Length 100 m; draft 4.3 m.

Type: Cargo ship. MMSI: 224376000.

Date/timePositionNaut miles runAvg speedWind from/ knotsBaromVisibWave heightAir tempDewpointWater temp
2014-Sep-19 09:20N 50°44' W 000°07'22 8.0
2014-Sep-19 06:33N 50°37' E 000°27'5312.8
2014-Sep-19 02:24N 51°09' E 001°35'1113.2
2014-Sep-19 01:33N 51°20' E 001°36'1111.4
2014-Sep-19 00:33N 51°28' E 001°23'2713.4
2014-Sep-18 22:33N 51°30' E 000°40'1212.0
2014-Sep-18 21:34N 51°27' E 000°22'1 0.8
2014-Sep-18 20:34N 51°28' E 000°21'0 0.0
2014-Sep-18 19:33N 51°28' E 000°21'0 0.0
2014-Sep-18 18:34N 51°28' E 000°21'0 0.0
2014-Sep-18 17:33N 51°28' E 000°21'0 0.0
2014-Sep-18 16:33N 51°28' E 000°21'0 0.0
2014-Sep-18 15:33N 51°28' E 000°21'0 0.0
2014-Sep-18 14:33N 51°28' E 000°21'0 0.0
2014-Sep-18 13:34N 51°28' E 000°21'0 0.0
2014-Sep-18 12:34N 51°28' E 000°21'0 0.0
2014-Sep-18 11:34N 51°28' E 000°21'0 0.0
2014-Sep-18 10:34N 51°28' E 000°21'0 0.0
2014-Sep-18 09:34N 51°28' E 000°21'0 0.0
2014-Sep-18 08:34N 51°28' E 000°21'0 0.0
2014-Sep-18 07:33N 51°28' E 000°21'0 0.0
2014-Sep-18 06:33N 51°28' E 000°21'0 0.0
2014-Sep-18 05:34N 51°28' E 000°21'0 0.0
2014-Sep-18 04:33N 51°28' E 000°21'0 0.0
2014-Sep-18 03:33N 51°28' E 000°21'0 0.0
2014-Sep-18 02:33N 51°28' E 000°21'0 0.0
2014-Sep-18 01:34N 51°28' E 000°21'0 0.0
2014-Sep-18 00:34N 51°28' E 000°21'0 0.2
2014-Sep-17 23:34N 51°27' E 000°21'0 0.5
2014-Sep-17 22:33N 51°27' E 000°21'7 6.6
2014-Sep-17 21:33N 51°30' E 000°30'11 8.3
2014-Sep-17 20:12N 51°30' E 000°48'6 8.9
2014-Sep-17 19:33N 51°29' E 000°57'1110.3
2014-Sep-17 18:32N 51°29' E 001°14'1010.6
2014-Sep-17 17:33N 51°26' E 001°30'7 7.0
2014-Sep-17 16:33N 51°21' E 001°38'3 2.9
2014-Sep-17 15:33N 51°18' E 001°36'4 4.4
2014-Sep-17 14:33N 51°14' E 001°37'6 5.6
2014-Sep-17 13:33N 51°10' E 001°42'8 7.3
2014-Sep-17 12:29N 51°03' E 001°35'9 8.6
2014-Sep-17 11:30N 50°57' E 001°26'  
2014-Sep-12 20:33N 35°54' W 005°19'0 0.2
2014-Sep-12 19:32N 35°54' W 005°19'0 0.0
2014-Sep-12 18:32N 35°54' W 005°19'0 0.0
2014-Sep-12 17:32N 35°54' W 005°19'1 1.4
2014-Sep-12 16:33N 35°55' W 005°18'368 9.7
2014-Sep-11 02:32N 40°00' E 000°31'92 6.8
2014-Sep-10 13:08N 41°13' E 001°44'  

Dump ship's entire track history